createdAt,value
2023-02-26T00:01:24.167Z,1.95
2023-02-26T00:03:52.316Z,1.50
2023-02-26T00:06:19.901Z,1.65
2023-02-26T00:08:46.875Z,1.63
2023-02-26T00:11:14.217Z,1.70
2023-02-26T00:13:43.463Z,1.77
2023-02-26T00:18:48.879Z,1.70
2023-02-26T00:21:20.559Z,2.42
2023-02-26T00:23:47.487Z,1.20
2023-02-26T00:26:14.076Z,1.80
2023-02-26T00:28:41.399Z,1.48
2023-02-26T00:31:09.024Z,2.20
2023-02-26T00:33:36.338Z,1.92
2023-02-26T00:36:29.302Z,1.70
2023-02-26T00:39:07.423Z,2.28
2023-02-26T00:41:36.253Z,1.70
2023-02-26T00:44:03.208Z,1.73
2023-02-26T00:46:39.570Z,2.05
2023-02-26T00:49:14.773Z,1.83
2023-02-26T00:51:53.644Z,2.20
2023-02-26T00:54:26.132Z,2.05
2023-02-26T00:56:54.144Z,1.70
2023-02-26T00:59:22.118Z,2.17
2023-02-26T01:01:49.508Z,1.77
2023-02-26T01:04:19.083Z,2.00
2023-02-26T01:06:49.805Z,1.90
2023-02-26T01:09:30.530Z,2.08
2023-02-26T01:12:03.543Z,1.95
2023-02-26T01:14:32.221Z,2.00
2023-02-26T01:17:04.460Z,2.55
2023-02-26T01:19:44.422Z,1.80
2023-02-26T01:22:25.611Z,2.42
2023-02-26T01:25:12.147Z,1.98
2023-02-26T01:27:39.527Z,1.77
2023-02-26T01:30:08.436Z,1.77
2023-02-26T01:32:49.561Z,2.10
2023-02-26T01:35:34.879Z,1.90
2023-02-26T01:38:04.617Z,1.85
2023-02-26T01:41:05.132Z,1.73
2023-02-26T01:43:50.889Z,1.58
2023-02-26T01:46:57.267Z,1.75
2023-02-26T01:49:24.130Z,1.85
2023-02-26T01:51:57.127Z,1.77
2023-02-26T01:54:30.837Z,1.80
2023-02-26T01:57:08.662Z,1.65
2023-02-26T01:59:39.843Z,1.98
2023-02-26T02:02:10.016Z,1.70
2023-02-26T02:04:38.294Z,1.80
2023-02-26T02:07:06.615Z,2.10
2023-02-26T02:09:33.489Z,2.30
2023-02-26T02:12:20.321Z,2.20
2023-02-26T02:15:04.176Z,1.80
2023-02-26T02:17:49.089Z,1.70
2023-02-26T02:20:34.353Z,2.15
2023-02-26T02:23:10.636Z,1.98
2023-02-26T02:25:55.539Z,1.85
2023-02-26T02:28:46.609Z,1.80
2023-02-26T02:31:22.892Z,2.10
2023-02-26T02:34:11.653Z,2.60
2023-02-26T02:37:13.688Z,2.10
2023-02-26T02:39:49.922Z,1.98
2023-02-26T02:42:20.376Z,1.95
2023-02-26T02:44:53.480Z,2.00
2023-02-26T02:47:22.864Z,1.67
2023-02-26T02:50:16.532Z,2.22
2023-02-26T02:52:51.158Z,1.80
2023-02-26T02:55:24.672Z,1.80
2023-02-26T02:58:00.734Z,1.52
2023-02-26T03:00:30.720Z,2.30
2023-02-26T03:03:09.336Z,2.10
2023-02-26T03:05:36.039Z,2.25
2023-02-26T03:08:06.961Z,2.17
2023-02-26T03:10:33.857Z,1.75
2023-02-26T03:13:00.604Z,2.00
2023-02-26T03:15:38.144Z,2.78
2023-02-26T03:18:27.707Z,2.42
2023-02-26T03:21:10.221Z,2.30
2023-02-26T03:23:46.441Z,2.30
2023-02-26T03:26:20.040Z,2.38
2023-02-26T03:28:59.272Z,2.30
2023-02-26T03:34:32.816Z,2.28
2023-02-26T03:37:02.799Z,1.95
2023-02-26T03:39:38.136Z,2.10
2023-02-26T03:42:26.011Z,2.42
2023-02-26T03:44:57.500Z,2.30
2023-02-26T03:47:25.590Z,2.10
2023-02-26T03:50:08.684Z,2.40
2023-02-26T03:52:39.794Z,2.60
2023-02-26T03:55:13.377Z,2.53
2023-02-26T03:57:40.201Z,2.42
2023-02-26T04:00:10.306Z,2.78
2023-02-26T04:02:50.282Z,2.50
2023-02-26T04:05:21.179Z,3.13
2023-02-26T04:07:49.232Z,2.03
2023-02-26T04:10:25.484Z,2.45
2023-02-26T04:12:52.139Z,3.42
2023-02-26T04:15:18.901Z,2.45
2023-02-26T04:17:45.559Z,2.10
2023-02-26T04:20:12.319Z,2.38
2023-02-26T04:22:39.283Z,3.08
2023-02-26T04:25:06.689Z,6.93
2023-02-26T04:27:33.416Z,5.28
2023-02-26T04:30:00.050Z,2.80
2023-02-26T04:32:26.769Z,2.63
2023-02-26T04:34:53.441Z,2.70
2023-02-26T04:37:20.196Z,3.03
2023-02-26T04:39:46.817Z,2.35
2023-02-26T04:42:13.478Z,2.00
2023-02-26T04:44:40.060Z,2.00
2023-02-26T04:47:06.725Z,2.45
2023-02-26T04:49:33.368Z,2.58
2023-02-26T04:52:00.098Z,2.17
2023-02-26T04:54:26.764Z,2.65
2023-02-26T04:56:53.409Z,2.33
2023-02-26T04:59:20.115Z,2.35
2023-02-26T05:01:46.821Z,2.50
2023-02-26T05:04:14.375Z,2.45
2023-02-26T05:06:42.083Z,2.38
2023-02-26T05:09:08.728Z,2.65
2023-02-26T05:11:35.493Z,2.60
2023-02-26T05:14:02.098Z,2.33
2023-02-26T05:16:29.202Z,2.40
2023-02-26T05:18:56.042Z,2.78
2023-02-26T05:21:25.187Z,2.28
2023-02-26T05:23:52.731Z,2.20
2023-02-26T05:26:19.364Z,2.65
2023-02-26T05:28:46.189Z,2.65
2023-02-26T05:31:13.938Z,2.38
2023-02-26T05:33:41.123Z,1.83
2023-02-26T05:36:08.091Z,2.13
2023-02-26T05:38:34.922Z,2.15
2023-02-26T05:41:02.098Z,2.00
2023-02-26T05:43:29.623Z,2.20
2023-02-26T05:45:56.334Z,2.20
2023-02-26T05:48:23.570Z,1.90
2023-02-26T05:50:51.152Z,1.73
2023-02-26T05:53:18.008Z,1.70
2023-02-26T05:55:44.596Z,2.00
2023-02-26T05:58:11.391Z,2.10
2023-02-26T06:00:38.665Z,1.90
2023-02-26T06:03:06.410Z,1.50
2023-02-26T06:05:33.202Z,1.83
2023-02-26T06:07:59.819Z,1.55
2023-02-26T06:10:26.420Z,2.00
2023-02-26T06:12:53.076Z,1.77
2023-02-26T06:15:19.695Z,1.48
2023-02-26T06:17:46.353Z,2.13
2023-02-26T06:20:13.194Z,1.92
2023-02-26T06:22:39.819Z,1.90
2023-02-26T06:25:07.252Z,1.92
2023-02-26T06:27:33.916Z,2.30
2023-02-26T06:30:00.575Z,1.70
2023-02-26T06:32:30.208Z,1.60
2023-02-26T06:34:57.353Z,1.80
2023-02-26T06:37:23.961Z,1.65
2023-02-26T06:39:50.600Z,1.50
2023-02-26T06:42:19.931Z,1.60
2023-02-26T06:44:46.763Z,1.30
2023-02-26T06:47:13.417Z,1.80
2023-02-26T06:49:40.106Z,1.70
2023-02-26T06:52:07.044Z,1.60
2023-02-26T06:54:33.778Z,1.65
2023-02-26T06:57:02.666Z,2.10
2023-02-26T06:59:29.353Z,1.58
2023-02-26T07:01:57.375Z,1.45
2023-02-26T07:04:24.439Z,1.55
2023-02-26T07:06:51.042Z,1.20
2023-02-26T07:09:19.867Z,1.55
2023-02-26T07:11:46.570Z,1.50
2023-02-26T07:14:13.255Z,1.63
2023-02-26T07:16:39.881Z,2.80
2023-02-26T07:19:06.685Z,1.63
2023-02-26T07:21:33.311Z,1.50
2023-02-26T07:24:00.159Z,1.30
2023-02-26T07:26:27.031Z,1.67
2023-02-26T07:28:54.149Z,1.30
2023-02-26T07:31:20.949Z,1.73
2023-02-26T07:33:47.696Z,1.65
2023-02-26T07:36:14.311Z,1.60
2023-02-26T07:38:41.049Z,1.60
2023-02-26T07:41:07.651Z,1.50
2023-02-26T07:43:34.448Z,1.58
2023-02-26T07:46:01.170Z,1.50
2023-02-26T07:48:27.809Z,1.38
2023-02-26T07:50:55.025Z,1.40
2023-02-26T07:53:22.531Z,1.45
2023-02-26T07:55:49.680Z,1.50
2023-02-26T07:58:16.518Z,1.35
2023-02-26T08:00:43.222Z,1.40
2023-02-26T08:03:09.834Z,1.58
2023-02-26T08:05:36.809Z,1.50
2023-02-26T08:08:03.720Z,1.70
2023-02-26T08:10:31.047Z,1.80
2023-02-26T08:12:57.682Z,1.80
2023-02-26T08:15:24.578Z,1.70
2023-02-26T08:17:54.171Z,1.75
2023-02-26T08:20:20.916Z,1.42
2023-02-26T08:22:47.633Z,1.30
2023-02-26T08:25:14.479Z,1.30
2023-02-26T08:27:41.205Z,1.88
2023-02-26T08:30:11.041Z,1.58
2023-02-26T08:32:39.846Z,1.15
2023-02-26T08:35:06.960Z,1.23
2023-02-26T08:37:33.551Z,1.40
2023-02-26T08:40:00.206Z,1.92
2023-02-26T08:42:26.846Z,1.58
2023-02-26T08:44:53.925Z,1.60
2023-02-26T08:47:28.386Z,1.45
2023-02-26T08:49:55.404Z,1.63
2023-02-26T08:52:22.102Z,1.40
2023-02-26T08:54:49.088Z,1.10
2023-02-26T08:57:15.817Z,1.30
2023-02-26T08:59:42.587Z,1.10
2023-02-26T09:02:12.008Z,1.40
2023-02-26T09:04:38.724Z,1.50
2023-02-26T09:07:05.320Z,1.60
2023-02-26T09:09:32.024Z,1.48
2023-02-26T09:11:59.149Z,1.27
2023-02-26T09:14:25.823Z,1.55
2023-02-26T09:16:52.473Z,1.50
2023-02-26T09:19:19.091Z,1.55
2023-02-26T09:21:45.712Z,1.70
2023-02-26T09:24:12.355Z,2.95
2023-02-26T09:26:39.020Z,1.67
2023-02-26T09:29:05.667Z,0.98
2023-02-26T09:31:32.723Z,1.40
2023-02-26T09:33:59.486Z,1.63
2023-02-26T09:36:26.749Z,1.70
2023-02-26T09:38:53.606Z,1.63
2023-02-26T09:41:41.482Z,1.60
2023-02-26T09:44:19.738Z,1.25
2023-02-26T09:46:56.434Z,1.25
2023-02-26T09:49:45.004Z,1.30
2023-02-26T09:52:48.329Z,1.45
2023-02-26T09:55:31.436Z,1.27
2023-02-26T09:58:03.409Z,1.65
2023-02-26T10:00:44.469Z,1.40
2023-02-26T10:03:48.417Z,1.40
2023-02-26T10:06:29.792Z,2.00
2023-02-26T10:09:14.534Z,2.28
2023-02-26T10:11:56.923Z,2.05
2023-02-26T10:14:37.022Z,1.30
2023-02-26T10:17:19.505Z,1.10
2023-02-26T10:19:51.529Z,1.50
2023-02-26T10:22:21.595Z,1.30
2023-02-26T10:25:08.462Z,1.48
2023-02-26T10:27:35.054Z,1.17
2023-02-26T10:30:21.981Z,1.20
2023-02-26T10:32:54.673Z,1.20
2023-02-26T10:35:26.134Z,1.35
